createdAt,value
2018-12-18T00:02:59.629Z,78.4
2018-12-18T00:18:11.821Z,78.2
2018-12-18T00:33:24.017Z,79.2
2018-12-18T00:48:36.545Z,78.8
2018-12-18T01:03:53.159Z,78.6
2018-12-18T01:18:58.084Z,79.3
2018-12-18T01:34:13.320Z,76.5
2018-12-18T01:49:25.649Z,76.5
2018-12-18T02:04:38.375Z,76
2018-12-18T02:19:41.891Z,75.3
2018-12-18T02:35:03.806Z,75.2
2018-12-18T02:50:16.372Z,75.1
2018-12-18T03:05:28.776Z,73.1
2018-12-18T03:20:42.446Z,74.5
2018-12-18T03:35:53.410Z,76.3
2018-12-18T03:51:06.145Z,75.8
2018-12-18T04:06:18.676Z,76.9
2018-12-18T04:21:30.946Z,77.6
2018-12-18T04:36:35.837Z,77.7
2018-12-18T04:51:55.802Z,77.6
2018-12-18T05:07:08.324Z,77.5
2018-12-18T05:22:20.943Z,77.7
2018-12-18T05:37:33.481Z,77.5
2018-12-18T05:52:45.964Z,77
2018-12-18T06:07:58.441Z,77.2
2018-12-18T06:23:10.972Z,77.8
2018-12-18T06:38:23.626Z,78.9
2018-12-18T06:53:30.216Z,75.7
2018-12-18T07:08:48.981Z,76.1
2018-12-18T07:24:01.814Z,76.5
2018-12-18T07:39:14.392Z,74.8
2018-12-18T07:54:27.300Z,73.4
2018-12-18T08:09:40.976Z,74.7
2018-12-18T08:24:52.659Z,73.5
2018-12-18T08:40:05.634Z,73.8
2018-12-18T08:55:18.418Z,69.8
2018-12-18T09:10:26.914Z,68.8
2018-12-18T09:25:44.413Z,69.2
2018-12-18T09:40:57.320Z,68.1
2018-12-18T09:56:10.262Z,67.8
2018-12-18T10:11:12.779Z,66.2
2018-12-18T10:26:36.425Z,65.5
2018-12-18T10:41:49.495Z,63.8
2018-12-18T10:57:02.708Z,63.7
2018-12-18T11:12:15.837Z,62.8
2018-12-18T11:27:26.706Z,61.8
2018-12-18T11:42:42.007Z,62
2018-12-18T11:57:55.061Z,61.9
2018-12-18T12:13:08.239Z,61.2
2018-12-18T12:28:12.913Z,60.6
2018-12-18T12:43:34.734Z,59.4
2018-12-18T12:58:49.954Z,50.4
2018-12-18T13:14:05.684Z,47.9
2018-12-18T13:29:21.104Z,49.6
2018-12-18T13:44:27.223Z,52.1
2018-12-18T13:59:49.189Z,51.3
2018-12-18T14:15:05.935Z,47.6
2018-12-18T14:30:21.521Z,53
2018-12-18T14:45:35.506Z,61.9
2018-12-18T15:00:39.731Z,69.3
2018-12-18T15:16:01.055Z,74.2
2018-12-18T15:31:13.339Z,77.7
2018-12-18T15:46:25.377Z,80.9
2018-12-18T16:01:37.351Z,82.9
2018-12-18T16:16:47.904Z,84.5
2018-12-18T16:32:01.026Z,84
2018-12-18T16:47:12.734Z,85.6
2018-12-18T17:02:25.970Z,87.2
2018-12-18T17:17:28.870Z,87.4
2018-12-18T17:32:47.536Z,86.8
2018-12-18T17:47:58.962Z,86.1
2018-12-18T18:03:10.607Z,85.9
2018-12-18T18:18:22.105Z,86.8
2018-12-18T18:33:33.575Z,87.2
2018-12-18T18:48:45.087Z,87.5
2018-12-18T19:03:58.308Z,88.3
2018-12-18T19:19:08.120Z,88.4
2018-12-18T19:34:15.696Z,87.9
2018-12-18T19:49:31.380Z,87.9
2018-12-18T20:04:42.682Z,88.2
2018-12-18T20:19:54.179Z,88.6
2018-12-18T20:35:05.836Z,88.3
2018-12-18T20:50:17.353Z,87.7
2018-12-18T21:05:28.891Z,88
2018-12-18T21:20:41.687Z,89.4
2018-12-18T21:35:53.868Z,84.6
2018-12-18T21:51:02.609Z,86.3
2018-12-18T22:06:16.516Z,86.5
2018-12-18T22:21:27.961Z,86.4
2018-12-18T22:36:39.361Z,86.3
2018-12-18T22:51:43.175Z,86.9
2018-12-18T23:07:02.517Z,86.8
2018-12-18T23:22:13.869Z,86.9
2018-12-18T23:37:25.352Z,85.8
2018-12-18T23:52:37.054Z,85.4
